createdAt,value
2023-03-04T00:02:14.705Z,101976.25
2023-03-04T00:04:42.497Z,101982.38
2023-03-04T00:07:10.214Z,101985.72
2023-03-04T00:09:37.947Z,101986.72
2023-03-04T00:12:08.595Z,101972.47
2023-03-04T00:14:36.266Z,101984.53
2023-03-04T00:17:04.480Z,101966.00
2023-03-04T00:19:32.296Z,101970.56
2023-03-04T00:22:00.020Z,101982.06
2023-03-04T00:24:27.704Z,101980.56
2023-03-04T00:26:55.515Z,101931.38
2023-03-04T00:29:24.599Z,101983.53
2023-03-04T00:31:52.411Z,101970.75
2023-03-04T00:34:20.253Z,101972.25
2023-03-04T00:36:47.940Z,101975.75
2023-03-04T00:39:16.090Z,101962.59
2023-03-04T00:41:43.796Z,101935.63
2023-03-04T00:44:11.491Z,101935.88
2023-03-04T00:46:40.556Z,101955.69
2023-03-04T00:49:08.293Z,101957.72
2023-03-04T00:51:35.975Z,101946.31
2023-03-04T00:54:03.670Z,101951.75
2023-03-04T00:56:31.344Z,101949.31
2023-03-04T00:58:59.008Z,101937.22
2023-03-04T01:01:26.799Z,101939.72
2023-03-04T01:03:55.935Z,101942.00
2023-03-04T01:06:23.643Z,101938.75
2023-03-04T01:08:51.331Z,101938.63
2023-03-04T01:11:19.022Z,101933.25
2023-03-04T01:13:46.750Z,101921.13
2023-03-04T01:16:14.440Z,101921.63
2023-03-04T01:18:42.167Z,101918.03
2023-03-04T01:21:11.255Z,101914.00
2023-03-04T01:23:38.897Z,101925.72
2023-03-04T01:26:06.565Z,101908.81
2023-03-04T01:28:35.744Z,101904.13
2023-03-04T01:31:03.527Z,101924.28
2023-03-04T01:33:32.451Z,101913.97
2023-03-04T01:36:00.199Z,101896.72
2023-03-04T01:38:29.281Z,101895.97
2023-03-04T01:40:57.044Z,101882.00
2023-03-04T01:43:28.140Z,101883.50
2023-03-04T01:45:58.061Z,101883.66
2023-03-04T01:48:28.096Z,101877.91
2023-03-04T01:50:56.048Z,101808.09
2023-03-04T01:53:25.550Z,101862.56
2023-03-04T01:55:57.313Z,101870.38
2023-03-04T01:58:27.174Z,101837.72
2023-03-04T02:00:54.911Z,101855.22
2023-03-04T02:03:23.327Z,101860.84
2023-03-04T02:05:53.058Z,101863.53
2023-03-04T02:08:23.021Z,101861.66
2023-03-04T02:10:52.227Z,101860.81
2023-03-04T02:13:21.442Z,101846.16
2023-03-04T02:15:49.263Z,101855.41
2023-03-04T02:18:18.993Z,101846.28
2023-03-04T02:20:57.435Z,101852.19
2023-03-04T02:23:31.210Z,101849.75
2023-03-04T02:26:13.743Z,101842.94
2023-03-04T02:28:41.564Z,101837.00
2023-03-04T02:31:21.745Z,101830.03
2023-03-04T02:33:49.685Z,101816.94
2023-03-04T02:36:17.489Z,101831.03
2023-03-04T02:38:45.316Z,101828.44
2023-03-04T02:41:18.190Z,101817.56
2023-03-04T02:43:47.469Z,101816.16
2023-03-04T02:46:15.179Z,101817.97
2023-03-04T02:48:42.868Z,101809.66
2023-03-04T02:51:10.768Z,101766.84
2023-03-04T02:53:38.615Z,101807.31
2023-03-04T02:56:07.058Z,101811.88
2023-03-04T02:58:36.132Z,101813.38
2023-03-04T03:01:04.075Z,101811.78
2023-03-04T03:03:31.810Z,101810.25
2023-03-04T03:05:59.519Z,101791.09
2023-03-04T03:08:27.327Z,101780.69
2023-03-04T03:10:54.969Z,101792.69
2023-03-04T03:13:22.741Z,101798.56
2023-03-04T03:15:51.890Z,101776.50
2023-03-04T03:18:19.638Z,101802.00
2023-03-04T03:20:47.595Z,101794.84
2023-03-04T03:23:17.999Z,101786.94
2023-03-04T03:25:45.687Z,101787.06
2023-03-04T03:28:13.417Z,101787.50
2023-03-04T03:30:41.092Z,101793.72
2023-03-04T03:33:10.292Z,101784.09
2023-03-04T03:35:38.222Z,101736.84
2023-03-04T03:38:05.881Z,101791.00
2023-03-04T03:40:33.845Z,101791.53
2023-03-04T03:43:01.609Z,101794.66
2023-03-04T03:45:29.566Z,101788.84
2023-03-04T03:47:57.246Z,101778.53
2023-03-04T03:50:26.299Z,101786.00
2023-03-04T03:52:54.031Z,101783.50
2023-03-04T03:55:21.786Z,101787.47
2023-03-04T03:57:49.889Z,101775.53
2023-03-04T04:00:18.338Z,101781.34
2023-03-04T04:02:46.170Z,101776.13
2023-03-04T04:05:14.400Z,101780.78
2023-03-04T04:07:43.459Z,101773.69
2023-03-04T04:10:12.298Z,101737.00
2023-03-04T04:12:40.812Z,101769.56
2023-03-04T04:15:11.963Z,101763.66
2023-03-04T04:17:40.151Z,101745.13
2023-03-04T04:20:09.765Z,101765.25
2023-03-04T04:22:37.424Z,101763.16
2023-03-04T04:25:08.849Z,101768.31
2023-03-04T04:27:36.603Z,101770.75
2023-03-04T04:30:05.297Z,101759.56
2023-03-04T04:32:33.087Z,101765.09
2023-03-04T04:35:00.822Z,101769.78
2023-03-04T04:37:28.548Z,101757.47
2023-03-04T04:39:56.321Z,101770.25
2023-03-04T04:42:25.532Z,101765.91
2023-03-04T04:44:53.272Z,101766.78
2023-03-04T04:47:20.966Z,101774.38
2023-03-04T04:49:48.659Z,101766.44
2023-03-04T04:52:16.332Z,101771.97
2023-03-04T04:54:44.076Z,101765.44
2023-03-04T04:57:11.942Z,101758.41
2023-03-04T04:59:40.984Z,101763.72
2023-03-04T05:02:08.728Z,101720.22
2023-03-04T05:04:36.457Z,101757.06
2023-03-04T05:07:04.418Z,101761.63
2023-03-04T05:09:32.309Z,101761.38
2023-03-04T05:11:59.996Z,101754.06
2023-03-04T05:14:27.733Z,101751.72
2023-03-04T05:16:56.962Z,101767.22
2023-03-04T05:19:24.642Z,101759.44
2023-03-04T05:21:52.458Z,101740.69
2023-03-04T05:24:20.252Z,101754.94
2023-03-04T05:26:48.376Z,101756.09
2023-03-04T05:29:16.099Z,101753.44
2023-03-04T05:31:43.800Z,101748.84
2023-03-04T05:34:12.908Z,101735.25
2023-03-04T05:36:40.674Z,101760.31
2023-03-04T05:39:08.496Z,101752.25
2023-03-04T05:41:36.199Z,101737.53
2023-03-04T05:44:03.907Z,101712.84
2023-03-04T05:46:33.549Z,101739.66
2023-03-04T05:49:01.529Z,101749.03
2023-03-04T05:51:30.590Z,101752.59
2023-03-04T05:53:58.301Z,101735.00
2023-03-04T05:56:25.999Z,101751.41
2023-03-04T05:58:54.070Z,101748.72
2023-03-04T06:01:21.819Z,101749.22
2023-03-04T06:03:49.621Z,101755.75
2023-03-04T06:06:17.798Z,101751.41
2023-03-04T06:08:46.855Z,101740.47
2023-03-04T06:11:14.594Z,101748.88
2023-03-04T06:13:42.374Z,101734.84
2023-03-04T06:16:11.154Z,101741.78
2023-03-04T06:18:39.378Z,101742.75
2023-03-04T06:21:07.644Z,101745.66
2023-03-04T06:23:35.396Z,101747.25
2023-03-04T06:26:05.784Z,101756.22
2023-03-04T06:28:33.457Z,101752.59
2023-03-04T06:31:01.240Z,101754.06
2023-03-04T06:33:28.938Z,101761.78
2023-03-04T06:35:58.033Z,101712.28
2023-03-04T06:38:26.220Z,101755.47
2023-03-04T06:40:57.046Z,101728.06
2023-03-04T06:43:26.481Z,101766.22
2023-03-04T06:45:54.348Z,101765.97
2023-03-04T06:48:22.163Z,101716.81
2023-03-04T06:50:49.860Z,101749.47
2023-03-04T06:53:17.652Z,101770.47
2023-03-04T06:55:45.350Z,101754.16
2023-03-04T06:58:13.023Z,101761.09
2023-03-04T07:00:42.109Z,101766.13
2023-03-04T07:03:10.494Z,101738.19
2023-03-04T07:05:38.211Z,101752.31
2023-03-04T07:08:07.033Z,101772.34
2023-03-04T07:10:34.878Z,101760.75
2023-03-04T07:13:02.594Z,101752.06
2023-03-04T07:15:30.437Z,101756.06
2023-03-04T07:17:59.564Z,101764.00
2023-03-04T07:20:27.716Z,101766.25
2023-03-04T07:22:56.393Z,101733.66
2023-03-04T07:25:24.087Z,101757.00
2023-03-04T07:27:51.888Z,101763.59
2023-03-04T07:30:19.755Z,101746.09
2023-03-04T07:32:47.472Z,101777.28
2023-03-04T07:35:16.753Z,101773.22
2023-03-04T07:37:44.583Z,101768.53
2023-03-04T07:40:13.410Z,101769.56
2023-03-04T07:42:41.152Z,101772.03
2023-03-04T07:45:09.938Z,101772.47
2023-03-04T07:47:37.618Z,101768.13
2023-03-04T07:50:05.958Z,101765.53
2023-03-04T07:52:35.021Z,101780.38
2023-03-04T07:55:02.760Z,101768.78
2023-03-04T07:57:30.436Z,101784.13
2023-03-04T07:59:58.112Z,101775.25
2023-03-04T08:02:25.798Z,101775.66
2023-03-04T08:04:53.512Z,101778.03
2023-03-04T08:07:21.199Z,101780.97
2023-03-04T08:09:50.373Z,101772.28
2023-03-04T08:12:18.730Z,101778.22
2023-03-04T08:14:46.755Z,101756.34
2023-03-04T08:17:14.737Z,101786.31
2023-03-04T08:19:42.466Z,101774.59
2023-03-04T08:22:10.153Z,101792.81
2023-03-04T08:24:37.993Z,101786.00
2023-03-04T08:27:07.148Z,101790.22
2023-03-04T08:29:34.955Z,101784.00
2023-03-04T08:32:02.710Z,101797.56
2023-03-04T08:34:31.373Z,101799.28
2023-03-04T08:36:59.162Z,101810.47
2023-03-04T08:39:26.876Z,101797.56
2023-03-04T08:41:54.534Z,101809.22
2023-03-04T08:44:25.784Z,101810.00
2023-03-04T08:46:54.424Z,101799.69
2023-03-04T08:49:22.122Z,101804.88
2023-03-04T08:51:49.783Z,101808.16
2023-03-04T08:54:17.457Z,101802.72
2023-03-04T08:56:45.247Z,101798.69
2023-03-04T08:59:13.064Z,101795.09
2023-03-04T09:01:43.319Z,101795.41
2023-03-04T09:04:11.057Z,101803.72
2023-03-04T09:06:38.782Z,101785.63
2023-03-04T09:09:06.482Z,101807.19
2023-03-04T09:11:34.275Z,101798.56
2023-03-04T09:14:01.965Z,101810.75
2023-03-04T09:16:29.764Z,101799.63
2023-03-04T09:18:58.878Z,101806.94
2023-03-04T09:21:26.541Z,101795.91
2023-03-04T09:23:54.201Z,101802.44
2023-03-04T09:26:23.878Z,101788.44
2023-03-04T09:28:52.976Z,101792.09
2023-03-04T09:31:21.226Z,101782.28
2023-03-04T09:33:49.353Z,101784.94
2023-03-04T09:36:18.599Z,101795.38
2023-03-04T09:38:46.751Z,101792.03
2023-03-04T09:41:18.184Z,101791.22
2023-03-04T09:43:46.943Z,101789.34
2023-03-04T09:46:19.464Z,101778.25
2023-03-04T09:48:50.878Z,101789.69
2023-03-04T09:51:34.850Z,101788.50
2023-03-04T09:54:20.992Z,101756.22
2023-03-04T09:56:52.366Z,101785.22
2023-03-04T09:59:27.118Z,101790.03
2023-03-04T10:01:56.502Z,101772.06
2023-03-04T10:04:33.469Z,101768.25
2023-03-04T10:07:06.164Z,101788.06
2023-03-04T10:09:44.860Z,101761.50
2023-03-04T10:12:16.198Z,101780.66
2023-03-04T10:14:51.165Z,101775.13
2023-03-04T10:17:23.622Z,101758.31
2023-03-04T10:19:58.692Z,101779.34
2023-03-04T10:22:34.417Z,101789.59
2023-03-04T10:25:16.733Z,101788.16
2023-03-04T10:27:45.442Z,101779.47
2023-03-04T10:30:23.904Z,101781.19
2023-03-04T10:32:51.561Z,101780.97
2023-03-04T10:35:21.657Z,101785.09
2023-03-04T10:37:52.120Z,101790.44
2023-03-04T10:40:21.816Z,101792.06
2023-03-04T10:42:50.810Z,101799.28
2023-03-04T10:45:23.316Z,101795.75
2023-03-04T10:47:55.624Z,101794.03
2023-03-04T10:50:25.289Z,101783.69
2023-03-04T10:52:55.888Z,101775.41
2023-03-04T10:55:26.849Z,101776.25
2023-03-04T10:57:58.061Z,101783.09
2023-03-04T11:00:29.899Z,101748.72
2023-03-04T11:03:30.675Z,101774.06
2023-03-04T11:06:07.862Z,101782.31
2023-03-04T11:08:36.965Z,101771.91
2023-03-04T11:11:04.740Z,101761.34
2023-03-04T11:13:32.797Z,101764.78
2023-03-04T11:16:03.744Z,101772.75
2023-03-04T11:18:40.106Z,101779.78
2023-03-04T11:21:08.924Z,101772.72
2023-03-04T11:23:46.099Z,101770.56
2023-03-04T11:26:17.363Z,101767.72
2023-03-04T11:28:51.630Z,101761.81
2023-03-04T11:31:24.580Z,101758.09
2023-03-04T11:33:56.716Z,101753.25
2023-03-04T11:36:34.399Z,101757.19
2023-03-04T11:39:06.162Z,101751.19
2023-03-04T11:41:37.349Z,101747.06
2023-03-04T11:44:08.969Z,101751.34
2023-03-04T11:47:12.806Z,101749.66
2023-03-04T11:50:15.158Z,101741.47
2023-03-04T11:52:56.210Z,101728.44
2023-03-04T11:55:40.019Z,101749.75
2023-03-04T11:58:25.560Z,101750.31
2023-03-04T12:00:59.012Z,101726.41
2023-03-04T12:03:52.921Z,101725.47
2023-03-04T12:06:33.076Z,101713.31
2023-03-04T12:09:37.488Z,101755.63
2023-03-04T12:12:23.794Z,101757.31
2023-03-04T12:15:01.826Z,101754.59
2023-03-04T12:18:03.465Z,101755.72
2023-03-04T12:20:46.024Z,101761.53
2023-03-04T12:23:30.494Z,101758.38
2023-03-04T12:26:04.080Z,101767.53
2023-03-04T12:28:52.304Z,101761.66
2023-03-04T12:31:31.503Z,101760.78
2023-03-04T12:34:21.830Z,101751.31
2023-03-04T12:36:57.053Z,101740.66
2023-03-04T12:39:33.345Z,101764.13
2023-03-04T12:42:13.898Z,101746.78
2023-03-04T12:44:47.601Z,101725.00
2023-03-04T12:47:28.571Z,101742.91
2023-03-04T12:50:22.163Z,101714.38
2023-03-04T12:52:58.433Z,101742.38
2023-03-04T12:55:36.351Z,101731.41
2023-03-04T12:58:05.490Z,101725.41
2023-03-04T13:00:47.158Z,101716.09
2023-03-04T13:03:23.330Z,101703.47
2023-03-04T13:06:19.590Z,101726.47
2023-03-04T13:08:58.275Z,101699.84
2023-03-04T13:11:47.285Z,101707.28
2023-03-04T13:14:35.563Z,101710.03
2023-03-04T13:17:49.116Z,101705.81
2023-03-04T13:20:24.186Z,101698.31
2023-03-04T13:22:58.100Z,101665.81
2023-03-04T13:25:39.759Z,101707.16
2023-03-04T13:28:18.502Z,101696.81
2023-03-04T13:31:21.006Z,101687.22
2023-03-04T13:34:02.255Z,101693.31
2023-03-04T13:36:34.442Z,101697.94
2023-03-04T13:39:05.260Z,101672.13
2023-03-04T13:41:47.814Z,101673.72
2023-03-04T13:44:36.333Z,101689.91
2023-03-04T13:47:15.401Z,101675.84
2023-03-04T13:49:44.461Z,101688.72
2023-03-04T13:52:38.312Z,101695.59
2023-03-04T13:55:43.118Z,101687.22
2023-03-04T13:58:22.700Z,101684.72
2023-03-04T14:00:53.247Z,101682.13
2023-03-04T14:03:23.509Z,101683.75
2023-03-04T14:06:17.846Z,101674.16
2023-03-04T14:08:45.934Z,101682.78
2023-03-04T14:11:16.483Z,101692.56
2023-03-04T14:13:44.601Z,101683.34
2023-03-04T14:16:12.719Z,101687.28
2023-03-04T14:18:41.597Z,101680.22
2023-03-04T14:21:14.878Z,101680.63
2023-03-04T14:23:43.917Z,101694.63
2023-03-04T14:26:14.102Z,101692.78
2023-03-04T14:28:47.742Z,101679.13
2023-03-04T14:31:20.847Z,101667.88
2023-03-04T14:33:50.987Z,101672.44
2023-03-04T14:36:21.527Z,101682.38
2023-03-04T14:38:58.878Z,101686.38
2023-03-04T14:41:31.160Z,101670.59
2023-03-04T14:44:09.736Z,101672.16
2023-03-04T14:46:41.686Z,101679.38
2023-03-04T14:49:14.134Z,101658.66
2023-03-04T14:51:49.219Z,101663.53
2023-03-04T14:54:34.259Z,101683.66
2023-03-04T14:57:20.662Z,101676.97
2023-03-04T14:59:48.795Z,101680.97
2023-03-04T15:02:21.154Z,101641.91
2023-03-04T15:04:51.092Z,101686.38
2023-03-04T15:07:22.180Z,101686.75
2023-03-04T15:09:56.327Z,101657.25
2023-03-04T15:12:27.570Z,101675.28
2023-03-04T15:14:56.776Z,101674.66
2023-03-04T15:17:27.145Z,101651.38
2023-03-04T15:20:03.682Z,101684.41
2023-03-04T15:22:31.448Z,101680.16
2023-03-04T15:25:00.857Z,101690.94
2023-03-04T15:27:30.903Z,101649.81
2023-03-04T15:30:02.001Z,101648.72
2023-03-04T15:32:31.089Z,101671.50
2023-03-04T15:34:59.147Z,101691.00
2023-03-04T15:37:28.868Z,101680.75
2023-03-04T15:39:58.501Z,101684.28
2023-03-04T15:42:28.909Z,101683.16
2023-03-04T15:44:56.601Z,101686.91
2023-03-04T15:47:25.622Z,101684.75
2023-03-04T15:49:53.611Z,101684.81
2023-03-04T15:52:23.195Z,101687.84
2023-03-04T15:54:51.272Z,101672.81
2023-03-04T15:57:22.593Z,101689.19
2023-03-04T15:59:51.980Z,101690.13
2023-03-04T16:02:22.065Z,101683.88
2023-03-04T16:04:49.809Z,101688.59
2023-03-04T16:07:19.841Z,101690.91
2023-03-04T16:09:50.132Z,101697.09
2023-03-04T16:12:17.966Z,101637.34
2023-03-04T16:14:46.945Z,101693.53
2023-03-04T16:17:16.309Z,101688.56
2023-03-04T16:19:44.118Z,101685.81
2023-03-04T16:22:14.724Z,101683.75
2023-03-04T16:24:43.321Z,101678.66
2023-03-04T16:27:22.145Z,101692.44
2023-03-04T16:29:49.864Z,101684.28
2023-03-04T16:32:19.763Z,101691.69
2023-03-04T16:34:47.947Z,101690.75
2023-03-04T16:37:19.011Z,101680.13
2023-03-04T16:39:49.154Z,101693.31
2023-03-04T16:42:19.037Z,101695.41
2023-03-04T16:44:47.207Z,101647.84
2023-03-04T16:47:15.001Z,101690.56
2023-03-04T16:49:44.059Z,101696.16
2023-03-04T16:52:23.314Z,101688.97
2023-03-04T16:54:51.092Z,101688.19
2023-03-04T16:57:18.805Z,101676.69
2023-03-04T16:59:47.057Z,101675.78
2023-03-04T17:02:16.600Z,101633.06
2023-03-04T17:04:46.802Z,101689.66
2023-03-04T17:07:14.592Z,101701.47
2023-03-04T17:09:42.462Z,101685.75
2023-03-04T17:12:12.948Z,101701.50
2023-03-04T17:14:40.865Z,101703.34
2023-03-04T17:17:08.870Z,101699.69
2023-03-04T17:19:36.761Z,101711.75
2023-03-04T17:22:05.841Z,101695.53
2023-03-04T17:24:33.660Z,101690.00
2023-03-04T17:27:01.519Z,101696.09
2023-03-04T17:29:29.288Z,101710.53
2023-03-04T17:31:57.035Z,101713.09
2023-03-04T17:34:25.848Z,101712.41
2023-03-04T17:36:53.630Z,101701.78
2023-03-04T17:39:22.812Z,101722.59
2023-03-04T17:41:51.308Z,101682.94
2023-03-04T17:44:19.569Z,101719.09
2023-03-04T17:46:49.514Z,101695.22
2023-03-04T17:49:17.334Z,101716.28
2023-03-04T17:51:45.401Z,101706.66
2023-03-04T17:54:13.258Z,101725.59
2023-03-04T17:56:43.432Z,101696.47
2023-03-04T17:59:16.697Z,101716.28
2023-03-04T18:01:45.647Z,101717.88
2023-03-04T18:04:13.839Z,101716.03
2023-03-04T18:06:42.201Z,101721.41
2023-03-04T18:09:10.325Z,101703.31
2023-03-04T18:11:39.875Z,101716.66
2023-03-04T18:14:12.228Z,101727.44
2023-03-04T18:16:40.652Z,101727.31
2023-03-04T18:19:09.916Z,101675.03
2023-03-04T18:21:37.771Z,101716.22
2023-03-04T18:24:06.021Z,101725.78
2023-03-04T18:26:33.704Z,101707.44
2023-03-04T18:29:01.571Z,101705.88
2023-03-04T18:31:32.285Z,101706.63
2023-03-04T18:34:02.237Z,101721.31
2023-03-04T18:36:30.686Z,101718.84
2023-03-04T18:38:59.493Z,101705.44
2023-03-04T18:41:28.182Z,101704.94
2023-03-04T18:43:56.364Z,101722.69
2023-03-04T18:46:32.224Z,101716.84
2023-03-04T18:49:03.196Z,101681.56
2023-03-04T18:51:31.740Z,101699.19
2023-03-04T18:53:59.532Z,101706.72
2023-03-04T18:56:37.648Z,101717.88
2023-03-04T18:59:08.358Z,101726.44
2023-03-04T19:01:38.073Z,101700.75
2023-03-04T19:04:06.813Z,101650.06
2023-03-04T19:06:35.505Z,101714.59
2023-03-04T19:09:03.390Z,101721.59
2023-03-04T19:11:31.685Z,101714.09
2023-03-04T19:13:59.621Z,101730.78
2023-03-04T19:16:27.601Z,101714.09
2023-03-04T19:18:56.778Z,101716.06
2023-03-04T19:21:24.534Z,101737.06
2023-03-04T19:23:52.412Z,101727.84
2023-03-04T19:26:20.176Z,101727.88
2023-03-04T19:28:48.080Z,101721.22
2023-03-04T19:31:16.040Z,101728.78
2023-03-04T19:33:43.790Z,101708.75
2023-03-04T19:36:13.105Z,101714.91
2023-03-04T19:38:40.971Z,101723.25
2023-03-04T19:41:10.341Z,101716.78
2023-03-04T19:43:39.294Z,101724.84
2023-03-04T19:46:08.665Z,101697.03
2023-03-04T19:48:37.609Z,101714.31
2023-03-04T19:51:14.366Z,101727.06
2023-03-04T19:53:43.714Z,101731.09
2023-03-04T19:56:11.786Z,101730.72
2023-03-04T19:58:39.650Z,101731.91
2023-03-04T20:01:07.513Z,101720.31
2023-03-04T20:03:35.374Z,101735.75
2023-03-04T20:06:04.685Z,101730.75
2023-03-04T20:08:32.572Z,101710.91
2023-03-04T20:11:01.672Z,101727.97
2023-03-04T20:13:29.388Z,101736.09
2023-03-04T20:15:57.234Z,101721.00
2023-03-04T20:18:25.035Z,101711.22
2023-03-04T20:20:53.063Z,101729.34
2023-03-04T20:23:21.741Z,101732.91
2023-03-04T20:25:49.558Z,101712.47
2023-03-04T20:28:18.640Z,101734.06
2023-03-04T20:30:46.476Z,101740.28
2023-03-04T20:33:14.399Z,101681.25
2023-03-04T20:35:42.342Z,101692.16
2023-03-04T20:38:10.197Z,101724.06
2023-03-04T20:40:38.137Z,101728.53
2023-03-04T20:43:06.918Z,101683.78
2023-03-04T20:45:37.354Z,101716.19
2023-03-04T20:48:05.435Z,101698.53
2023-03-04T20:50:33.536Z,101704.44
2023-03-04T20:53:01.357Z,101705.53
2023-03-04T20:55:30.330Z,101710.56
2023-03-04T20:57:58.201Z,101718.09
2023-03-04T21:00:26.309Z,101710.34
2023-03-04T21:02:56.168Z,101706.19
2023-03-04T21:05:23.838Z,101691.31
2023-03-04T21:07:51.515Z,101709.47
2023-03-04T21:10:20.695Z,101708.66
2023-03-04T21:12:48.696Z,101703.13
2023-03-04T21:15:16.599Z,101703.09
2023-03-04T21:17:44.625Z,101696.38
2023-03-04T21:20:15.876Z,101685.03
2023-03-04T21:22:43.895Z,101685.31
2023-03-04T21:25:11.797Z,101688.69
2023-03-04T21:27:42.650Z,101701.06
2023-03-04T21:30:12.510Z,101687.00
2023-03-04T21:32:40.622Z,101668.69
2023-03-04T21:35:14.014Z,101645.59
2023-03-04T21:37:43.429Z,101692.88
2023-03-04T21:40:13.017Z,101689.81
2023-03-04T21:42:40.945Z,101701.59
2023-03-04T21:45:10.460Z,101697.06
2023-03-04T21:47:38.254Z,101694.38
2023-03-04T21:50:06.638Z,101703.09
2023-03-04T21:52:34.400Z,101701.09
2023-03-04T21:55:03.462Z,101699.41
2023-03-04T21:57:33.170Z,101704.91
2023-03-04T22:00:00.872Z,101693.81
2023-03-04T22:02:28.633Z,101693.13
2023-03-04T22:04:56.382Z,101680.97
2023-03-04T22:07:24.172Z,101697.41
2023-03-04T22:09:54.260Z,101682.59
2023-03-04T22:12:23.351Z,101679.78
2023-03-04T22:14:51.095Z,101679.97
2023-03-04T22:17:18.975Z,101684.41
2023-03-04T22:19:46.764Z,101688.06
2023-03-04T22:22:17.821Z,101682.94
2023-03-04T22:24:45.779Z,101676.81
2023-03-04T22:27:13.532Z,101681.75
2023-03-04T22:29:42.701Z,101687.31
2023-03-04T22:32:10.504Z,101687.31
2023-03-04T22:34:38.196Z,101678.13
2023-03-04T22:37:06.262Z,101678.84
2023-03-04T22:39:33.944Z,101680.78
2023-03-04T22:42:01.640Z,101670.50
2023-03-04T22:44:29.400Z,101669.66
2023-03-04T22:46:58.581Z,101682.16
2023-03-04T22:49:26.384Z,101677.88
2023-03-04T22:51:54.095Z,101644.19
2023-03-04T22:54:21.824Z,101668.41
2023-03-04T22:56:49.499Z,101661.19
2023-03-04T22:59:17.231Z,101656.00
2023-03-04T23:01:44.909Z,101656.44
2023-03-04T23:04:13.994Z,101642.78
2023-03-04T23:06:41.702Z,101632.94
2023-03-04T23:09:09.797Z,101639.13
2023-03-04T23:11:38.801Z,101645.41
2023-03-04T23:14:08.416Z,101642.00
2023-03-04T23:16:39.256Z,101628.94
2023-03-04T23:19:07.769Z,101595.28
2023-03-04T23:21:37.964Z,101632.50
2023-03-04T23:24:08.129Z,101629.03
2023-03-04T23:26:38.697Z,101633.28
2023-03-04T23:29:08.137Z,101628.03
2023-03-04T23:31:36.406Z,101589.38
2023-03-04T23:34:04.992Z,101598.97
2023-03-04T23:36:35.593Z,101622.03
2023-03-04T23:39:05.941Z,101616.84
2023-03-04T23:41:35.316Z,101603.00
2023-03-04T23:44:03.430Z,101618.38
2023-03-04T23:46:31.300Z,101589.03
2023-03-04T23:48:59.134Z,101613.47
2023-03-04T23:51:28.560Z,101593.19
2023-03-04T23:53:56.642Z,101610.78
2023-03-04T23:56:28.088Z,101610.13
2023-03-04T23:58:55.843Z,101574.56
